sensor_id;sensor_type;location;lat;lon;timestamp;pressure;altitude;pressure_sealevel;temperature;humidity
7824;BME280;3957;48.61947800;9.05303100;2023-03-14T00:00:12;94573.91;;;7.00;100.00
7824;BME280;3957;48.61947800;9.05303100;2023-03-14T00:01:18;94565.94;;;7.00;100.00
7824;BME280;3957;48.61947800;9.05303100;2023-03-14T00:02:20;94566.09;;;7.05;100.00
7824;BME280;3957;48.61947800;9.05303100;2023-03-14T00:03:20;94565.44;;;7.09;100.00
7824;BME280;3957;48.61947800;9.05303100;2023-03-14T00:04:21;94570.50;;;6.92;100.00
7824;BME280;3957;48.61947800;9.05303100;2023-03-14T00:05:21;94569.19;;;7.02;100.00
7824;BME280;3957;48.61947800;9.05303100;2023-03-14T00:06:22;94567.78;;;6.99;100.00
7824;BME280;3957;48.61947800;9.05303100;2023-03-14T00:07:23;94562.88;;;6.96;100.00
7824;BME280;3957;48.61947800;9.05303100;2023-03-14T00:08:24;94546.88;;;7.03;100.00
7824;BME280;3957;48.61947800;9.05303100;2023-03-14T00:09:25;94540.97;;;7.01;100.00
7824;BME280;3957;48.61947800;9.05303100;2023-03-14T00:10:26;94542.16;;;7.05;100.00
7824;BME280;3957;48.61947800;9.05303100;2023-03-14T00:11:27;94539.34;;;7.00;100.00
7824;BME280;3957;48.61947800;9.05303100;2023-03-14T00:12:27;94551.84;;;6.99;100.00
7824;BME280;3957;48.61947800;9.05303100;2023-03-14T00:13:27;94560.16;;;7.03;100.00
7824;BME280;3957;48.61947800;9.05303100;2023-03-14T00:14:28;94575.84;;;7.11;100.00
7824;BME280;3957;48.61947800;9.05303100;2023-03-14T00:15:29;94574.06;;;7.05;100.00
7824;BME280;3957;48.61947800;9.05303100;2023-03-14T00:16:29;94556.47;;;7.04;100.00
7824;BME280;3957;48.61947800;9.05303100;2023-03-14T00:17:30;94542.22;;;6.98;100.00
7824;BME280;3957;48.61947800;9.05303100;2023-03-14T00:18:31;94536.28;;;6.96;100.00
7824;BME280;3957;48.61947800;9.05303100;2023-03-14T00:19:32;94539.56;;;6.98;100.00
7824;BME280;3957;48.61947800;9.05303100;2023-03-14T00:20:32;94534.03;;;7.00;100.00
7824;BME280;3957;48.61947800;9.05303100;2023-03-14T00:21:33;94534.03;;;7.00;100.00
7824;BME280;3957;48.61947800;9.05303100;2023-03-14T00:22:42;94522.41;;;7.12;100.00
7824;BME280;3957;48.61947800;9.05303100;2023-03-14T00:23:43;94523.09;;;7.08;100.00
7824;BME280;3957;48.61947800;9.05303100;2023-03-14T00:24:43;94522.66;;;7.11;100.00
7824;BME280;3957;48.61947800;9.05303100;2023-03-14T00:25:43;94541.50;;;7.09;100.00
7824;BME280;3957;48.61947800;9.05303100;2023-03-14T00:26:44;94540.91;;;7.07;100.00
7824;BME280;3957;48.61947800;9.05303100;2023-03-14T00:27:44;94540.91;;;7.07;100.00
7824;BME280;3957;48.61947800;9.05303100;2023-03-14T00:28:51;94531.06;;;7.08;100.00
7824;BME280;3957;48.61947800;9.05303100;2023-03-14T00:29:52;94538.66;;;7.04;100.00
7824;BME280;3957;48.61947800;9.05303100;2023-03-14T00:30:52;94537.00;;;7.10;100.00
7824;BME280;3957;48.61947800;9.05303100;2023-03-14T00:31:52;94538.09;;;7.02;100.00
7824;BME280;3957;48.61947800;9.05303100;2023-03-14T00:32:53;94536.22;;;7.03;100.00
7824;BME280;3957;48.61947800;9.05303100;2023-03-14T00:33:54;94532.78;;;7.02;100.00
7824;BME280;3957;48.61947800;9.05303100;2023-03-14T00:34:54;94532.78;;;7.02;100.00
7824;BME280;3957;48.61947800;9.05303100;2023-03-14T00:35:59;94532.78;;;7.02;100.00
7824;BME280;3957;48.61947800;9.05303100;2023-03-14T00:36:59;94532.16;;;7.00;100.00
7824;BME280;3957;48.61947800;9.05303100;2023-03-14T00:38:00;94526.44;;;7.03;100.00
7824;BME280;3957;48.61947800;9.05303100;2023-03-14T00:39:00;94527.16;;;7.10;100.00
7824;BME280;3957;48.61947800;9.05303100;2023-03-14T00:40:00;94527.97;;;7.11;100.00
7824;BME280;3957;48.61947800;9.05303100;2023-03-14T00:41:06;94524.34;;;7.05;100.00
7824;BME280;3957;48.61947800;9.05303100;2023-03-14T00:42:07;94529.09;;;7.03;100.00
7824;BME280;3957;48.61947800;9.05303100;2023-03-14T00:43:07;94535.38;;;7.09;100.00
7824;BME280;3957;48.61947800;9.05303100;2023-03-14T00:44:07;94535.66;;;7.01;100.00
7824;BME280;3957;48.61947800;9.05303100;2023-03-14T00:45:08;94534.41;;;7.03;100.00
7824;BME280;3957;48.61947800;9.05303100;2023-03-14T00:46:10;94542.22;;;7.17;100.00
7824;BME280;3957;48.61947800;9.05303100;2023-03-14T00:47:11;94543.56;;;7.07;100.00
7824;BME280;3957;48.61947800;9.05303100;2023-03-14T00:48:11;94535.81;;;7.06;100.00
7824;BME280;3957;48.61947800;9.05303100;2023-03-14T00:49:11;94540.91;;;7.07;100.00
7824;BME280;3957;48.61947800;9.05303100;2023-03-14T00:50:12;94543.78;;;7.06;100.00
7824;BME280;3957;48.61947800;9.05303100;2023-03-14T00:51:12;94546.31;;;7.19;100.00
7824;BME280;3957;48.61947800;9.05303100;2023-03-14T00:52:17;94547.13;;;7.20;100.00
7824;BME280;3957;48.61947800;9.05303100;2023-03-14T00:53:18;94543.41;;;7.21;100.00
7824;BME280;3957;48.61947800;9.05303100;2023-03-14T00:54:19;94548.31;;;7.24;100.00
7824;BME280;3957;48.61947800;9.05303100;2023-03-14T00:55:20;94547.34;;;7.18;100.00
7824;BME280;3957;48.61947800;9.05303100;2023-03-14T00:56:20;94545.13;;;7.15;100.00
7824;BME280;3957;48.61947800;9.05303100;2023-03-14T00:57:21;94545.06;;;7.22;100.00
7824;BME280;3957;48.61947800;9.05303100;2023-03-14T00:58:21;94554.00;;;7.27;100.00
7824;BME280;3957;48.61947800;9.05303100;2023-03-14T00:59:22;94542.84;;;7.19;100.00
7824;BME280;3957;48.61947800;9.05303100;2023-03-14T01:00:22;94534.19;;;7.23;100.00
7824;BME280;3957;48.61947800;9.05303100;2023-03-14T01:01:24;94544.47;;;7.20;100.00
7824;BME280;3957;48.61947800;9.05303100;2023-03-14T01:02:25;94540.84;;;7.14;100.00
7824;BME280;3957;48.61947800;9.05303100;2023-03-14T01:03:25;94545.06;;;7.22;100.00
7824;BME280;3957;48.61947800;9.05303100;2023-03-14T01:04:26;94541.50;;;7.09;100.00
7824;BME280;3957;48.61947800;9.05303100;2023-03-14T01:05:29;94535.88;;;7.18;100.00
7824;BME280;3957;48.61947800;9.05303100;2023-03-14T01:06:30;94530.34;;;7.19;100.00
7824;BME280;3957;48.61947800;9.05303100;2023-03-14T01:07:31;94541.81;;;7.20;100.00
7824;BME280;3957;48.61947800;9.05303100;2023-03-14T01:08:32;94535.81;;;7.24;100.00
7824;BME280;3957;48.61947800;9.05303100;2023-03-14T01:09:32;94535.25;;;7.22;100.00
7824;BME280;3957;48.61947800;9.05303100;2023-03-14T01:10:33;94534.41;;;7.22;100.00
7824;BME280;3957;48.61947800;9.05303100;2023-03-14T01:11:35;94523.09;;;7.26;100.00
7824;BME280;3957;48.61947800;9.05303100;2023-03-14T01:12:36;94523.75;;;7.22;100.00
7824;BME280;3957;48.61947800;9.05303100;2023-03-14T01:13:36;94529.09;;;7.22;100.00
7824;BME280;3957;48.61947800;9.05303100;2023-03-14T01:14:37;94521.41;;;7.13;100.00
7824;BME280;3957;48.61947800;9.05303100;2023-03-14T01:15:38;94526.88;;;7.19;100.00
7824;BME280;3957;48.61947800;9.05303100;2023-03-14T01:16:38;94534.34;;;7.28;100.00
7824;BME280;3957;48.61947800;9.05303100;2023-03-14T01:17:38;94519.47;;;7.21;100.00
7824;BME280;3957;48.61947800;9.05303100;2023-03-14T01:18:41;94512.38;;;7.14;100.00
7824;BME280;3957;48.61947800;9.05303100;2023-03-14T01:19:43;94504.84;;;7.11;100.00
7824;BME280;3957;48.61947800;9.05303100;2023-03-14T01:20:43;94506.03;;;7.15;100.00
7824;BME280;3957;48.61947800;9.05303100;2023-03-14T01:21:44;94508.53;;;7.10;100.00
7824;BME280;3957;48.61947800;9.05303100;2023-03-14T01:22:44;94504.19;;;7.16;100.00
7824;BME280;3957;48.61947800;9.05303100;2023-03-14T01:23:45;94500.66;;;7.22;100.00
7824;BME280;3957;48.61947800;9.05303100;2023-03-14T01:24:46;94484.53;;;7.17;100.00
7824;BME280;3957;48.61947800;9.05303100;2023-03-14T01:25:47;94487.44;;;7.15;100.00
7824;BME280;3957;48.61947800;9.05303100;2023-03-14T01:26:47;94493.09;;;7.19;100.00
7824;BME280;3957;48.61947800;9.05303100;2023-03-14T01:27:48;94495.19;;;7.17;100.00
7824;BME280;3957;48.61947800;9.05303100;2023-03-14T01:28:50;94491.69;;;7.17;100.00
7824;BME280;3957;48.61947800;9.05303100;2023-03-14T01:29:51;94485.19;;;7.12;100.00
7824;BME280;3957;48.61947800;9.05303100;2023-03-14T01:30:52;94500.34;;;7.12;100.00
7824;BME280;3957;48.61947800;9.05303100;2023-03-14T01:31:52;94489.03;;;7.17;100.00
7824;BME280;3957;48.61947800;9.05303100;2023-03-14T01:32:53;94495.47;;;7.09;100.00
7824;BME280;3957;48.61947800;9.05303100;2023-03-14T01:33:53;94491.34;;;7.13;100.00
7824;BME280;3957;48.61947800;9.05303100;2023-03-14T01:34:54;94484.88;;;7.21;100.00
7824;BME280;3957;48.61947800;9.05303100;2023-03-14T01:35:55;94487.50;;;7.09;100.00
7824;BME280;3957;48.61947800;9.05303100;2023-03-14T01:36:55;94487.28;;;7.10;100.00
7824;BME280;3957;48.61947800;9.05303100;2023-03-14T01:37:56;94479.28;;;7.10;100.00
7824;BME280;3957;48.61947800;9.05303100;2023-03-14T01:38:57;94475.66;;;7.05;100.00
7824;BME280;3957;48.61947800;9.05303100;2023-03-14T01:39:58;94469.38;;;7.18;100.00
7824;BME280;3957;48.61947800;9.05303100;2023-03-14T01:40:58;94464.75;;;7.13;100.00
7824;BME280;3957;48.61947800;9.05303100;2023-03-14T01:42:00;94468.88;;;7.09;100.00
7824;BME280;3957;48.61947800;9.05303100;2023-03-14T01:43:15;94462.44;;;7.17;100.00
7824;BME280;3957;48.61947800;9.05303100;2023-03-14T01:44:16;94456.09;;;7.18;100.00
7824;BME280;3957;48.61947800;9.05303100;2023-03-14T01:46:54;94464.81;;;7.06;100.00
7824;BME280;3957;48.61947800;9.05303100;2023-03-14T01:47:55;94461.53;;;7.04;100.00
7824;BME280;3957;48.61947800;9.05303100;2023-03-14T01:50:01;94456.97;;;7.11;100.00
7824;BME280;3957;48.61947800;9.05303100;2023-03-14T01:51:09;94447.66;;;7.02;100.00
7824;BME280;3957;48.61947800;9.05303100;2023-03-14T01:52:16;94443.47;;;7.13;100.00
7824;BME280;3957;48.61947800;9.05303100;2023-03-14T01:53:20;94446.50;;;6.98;100.00
7824;BME280;3957;48.61947800;9.05303100;2023-03-14T01:55:24;94456.22;;;7.04;100.00
7824;BME280;3957;48.61947800;9.05303100;2023-03-14T01:56:26;94463.63;;;7.02;100.00
7824;BME280;3957;48.61947800;9.05303100;2023-03-14T01:57:39;94456.91;;;7.00;100.00
7824;BME280;3957;48.61947800;9.05303100;2023-03-14T01:58:43;94451.72;;;7.05;100.00
7824;BME280;3957;48.61947800;9.05303100;2023-03-14T02:01:16;94462.50;;;6.91;100.00
7824;BME280;3957;48.61947800;9.05303100;2023-03-14T02:02:18;94459.94;;;7.03;100.00
7824;BME280;3957;48.61947800;9.05303100;2023-03-14T02:03:20;94458.66;;;6.87;100.00
7824;BME280;3957;48.61947800;9.05303100;2023-03-14T02:04:23;94465.63;;;6.88;100.00
7824;BME280;3957;48.61947800;9.05303100;2023-03-14T02:05:28;94463.19;;;6.87;100.00
7824;BME280;3957;48.61947800;9.05303100;2023-03-14T02:06:54;94467.47;;;6.88;100.00
7824;BME280;3957;48.61947800;9.05303100;2023-03-14T02:08:01;94464.66;;;6.83;100.00
7824;BME280;3957;48.61947800;9.05303100;2023-03-14T02:09:06;94465.22;;;6.85;100.00
7824;BME280;3957;48.61947800;9.05303100;2023-03-14T02:10:09;94459.41;;;6.94;100.00
7824;BME280;3957;48.61947800;9.05303100;2023-03-14T02:11:10;94457.94;;;6.98;100.00
7824;BME280;3957;48.61947800;9.05303100;2023-03-14T02:12:37;94462.28;;;6.93;100.00
7824;BME280;3957;48.61947800;9.05303100;2023-03-14T02:13:47;94459.13;;;6.84;100.00
7824;BME280;3957;48.61947800;9.05303100;2023-03-14T02:14:48;94451.44;;;6.94;100.00
7824;BME280;3957;48.61947800;9.05303100;2023-03-14T02:15:59;94451.53;;;6.88;100.00
7824;BME280;3957;48.61947800;9.05303100;2023-03-14T02:17:18;94445.59;;;6.86;100.00
7824;BME280;3957;48.61947800;9.05303100;2023-03-14T02:18:52;94446.63;;;6.85;100.00
7824;BME280;3957;48.61947800;9.05303100;2023-03-14T02:21:48;94438.13;;;6.76;100.00
7824;BME280;3957;48.61947800;9.05303100;2023-03-14T02:22:52;94435.25;;;6.77;100.00
7824;BME280;3957;48.61947800;9.05303100;2023-03-14T02:24:19;94439.84;;;6.70;100.00
7824;BME280;3957;48.61947800;9.05303100;2023-03-14T02:25:45;94419.06;;;6.79;100.00
7824;BME280;3957;48.61947800;9.05303100;2023-03-14T02:27:09;94426.31;;;6.72;100.00
7824;BME280;3957;48.61947800;9.05303100;2023-03-14T02:28:14;94426.47;;;6.77;100.00
7824;BME280;3957;48.61947800;9.05303100;2023-03-14T02:29:15;94424.47;;;6.91;100.00
7824;BME280;3957;48.61947800;9.05303100;2023-03-14T02:30:22;94417.09;;;6.74;100.00
7824;BME280;3957;48.61947800;9.05303100;2023-03-14T02:31:23;94420.72;;;6.80;100.00
7824;BME280;3957;48.61947800;9.05303100;2023-03-14T02:32:26;94425.56;;;6.83;100.00
7824;BME280;3957;48.61947800;9.05303100;2023-03-14T02:33:27;94430.97;;;6.76;100.00
7824;BME280;3957;48.61947800;9.05303100;2023-03-14T02:34:28;94426.69;;;6.75;100.00
7824;BME280;3957;48.61947800;9.05303100;2023-03-14T02:35:40;94427.22;;;6.84;100.00
7824;BME280;3957;48.61947800;9.05303100;2023-03-14T02:36:41;94417.66;;;6.76;100.00
7824;BME280;3957;48.61947800;9.05303100;2023-03-14T02:37:48;94427.28;;;6.77;100.00
7824;BME280;3957;48.61947800;9.05303100;2023-03-14T02:39:01;94419.00;;;6.86;100.00
7824;BME280;3957;48.61947800;9.05303100;2023-03-14T02:40:05;94409.28;;;6.79;100.00
7824;BME280;3957;48.61947800;9.05303100;2023-03-14T02:41:08;94400.31;;;6.74;100.00
7824;BME280;3957;48.61947800;9.05303100;2023-03-14T02:42:14;94399.66;;;6.78;100.00
7824;BME280;3957;48.61947800;9.05303100;2023-03-14T02:43:14;94407.41;;;6.80;100.00
7824;BME280;3957;48.61947800;9.05303100;2023-03-14T02:44:20;94404.03;;;6.73;100.00
7824;BME280;3957;48.61947800;9.05303100;2023-03-14T02:46:25;94390.06;;;6.77;100.00
7824;BME280;3957;48.61947800;9.05303100;2023-03-14T02:47:30;94387.41;;;6.77;100.00
7824;BME280;3957;48.61947800;9.05303100;2023-03-14T02:48:35;94386.44;;;6.72;100.00
7824;BME280;3957;48.61947800;9.05303100;2023-03-14T02:49:36;94384.88;;;6.64;100.00
7824;BME280;3957;48.61947800;9.05303100;2023-03-14T02:50:38;94382.38;;;6.69;100.00
7824;BME280;3957;48.61947800;9.05303100;2023-03-14T02:51:40;94379.50;;;6.71;100.00
7824;BME280;3957;48.61947800;9.05303100;2023-03-14T02:52:41;94380.63;;;6.63;100.00
7824;BME280;3957;48.61947800;9.05303100;2023-03-14T02:53:42;94383.63;;;6.67;100.00
7824;BME280;3957;48.61947800;9.05303100;2023-03-14T02:54:46;94385.03;;;6.69;100.00
7824;BME280;3957;48.61947800;9.05303100;2023-03-14T02:55:48;94378.78;;;6.63;100.00
7824;BME280;3957;48.61947800;9.05303100;2023-03-14T02:56:50;94377.00;;;6.57;100.00
7824;BME280;3957;48.61947800;9.05303100;2023-03-14T02:57:51;94382.97;;;6.53;100.00
7824;BME280;3957;48.61947800;9.05303100;2023-03-14T02:58:51;94373.06;;;6.60;100.00
7824;BME280;3957;48.61947800;9.05303100;2023-03-14T03:00:05;94383.13;;;6.58;100.00
7824;BME280;3957;48.61947800;9.05303100;2023-03-14T03:01:09;94380.09;;;6.54;100.00
7824;BME280;3957;48.61947800;9.05303100;2023-03-14T03:02:09;94385.34;;;6.61;100.00
7824;BME280;3957;48.61947800;9.05303100;2023-03-14T03:03:10;94390.06;;;6.59;100.00
7824;BME280;3957;48.61947800;9.05303100;2023-03-14T03:04:10;94377.34;;;6.61;100.00
7824;BME280;3957;48.61947800;9.05303100;2023-03-14T03:05:11;94381.81;;;6.67;100.00
7824;BME280;3957;48.61947800;9.05303100;2023-03-14T03:06:11;94367.41;;;6.56;100.00
7824;BME280;3957;48.61947800;9.05303100;2023-03-14T03:07:12;94377.75;;;6.64;100.00
7824;BME280;3957;48.61947800;9.05303100;2023-03-14T03:08:12;94368.44;;;6.55;100.00
7824;BME280;3957;48.61947800;9.05303100;2023-03-14T03:09:14;94366.50;;;6.62;100.00
7824;BME280;3957;48.61947800;9.05303100;2023-03-14T03:10:14;94353.81;;;6.64;100.00
7824;BME280;3957;48.61947800;9.05303100;2023-03-14T03:11:14;94348.06;;;6.68;100.00
7824;BME280;3957;48.61947800;9.05303100;2023-03-14T03:12:15;94347.56;;;6.59;100.00
7824;BME280;3957;48.61947800;9.05303100;2023-03-14T03:13:16;94333.59;;;6.63;100.00
7824;BME280;3957;48.61947800;9.05303100;2023-03-14T03:14:18;94342.34;;;6.64;100.00
7824;BME280;3957;48.61947800;9.05303100;2023-03-14T03:15:18;94319.38;;;6.70;100.00
7824;BME280;3957;48.61947800;9.05303100;2023-03-14T03:16:19;94324.59;;;6.64;100.00
7824;BME280;3957;48.61947800;9.05303100;2023-03-14T03:17:19;94322.16;;;6.63;100.00
7824;BME280;3957;48.61947800;9.05303100;2023-03-14T03:18:20;94336.25;;;6.63;100.00
7824;BME280;3957;48.61947800;9.05303100;2023-03-14T03:19:20;94328.72;;;6.60;100.00
7824;BME280;3957;48.61947800;9.05303100;2023-03-14T03:20:21;94322.72;;;6.65;100.00
7824;BME280;3957;48.61947800;9.05303100;2023-03-14T03:21:22;94328.94;;;6.59;100.00
7824;BME280;3957;48.61947800;9.05303100;2023-03-14T03:22:23;94317.56;;;6.52;100.00
7824;BME280;3957;48.61947800;9.05303100;2023-03-14T03:23:23;94323.63;;;6.59;100.00
7824;BME280;3957;48.61947800;9.05303100;2023-03-14T03:24:25;94321.63;;;6.54;100.00
7824;BME280;3957;48.61947800;9.05303100;2023-03-14T03:25:26;94316.31;;;6.54;100.00
7824;BME280;3957;48.61947800;9.05303100;2023-03-14T03:26:27;94307.59;;;6.47;100.00
7824;BME280;3957;48.61947800;9.05303100;2023-03-14T03:27:30;94307.59;;;6.47;100.00
7824;BME280;3957;48.61947800;9.05303100;2023-03-14T03:28:30;94313.72;;;6.47;100.00
7824;BME280;3957;48.61947800;9.05303100;2023-03-14T03:29:32;94305.91;;;6.53;100.00
7824;BME280;3957;48.61947800;9.05303100;2023-03-14T03:30:37;94311.44;;;6.51;100.00
7824;BME280;3957;48.61947800;9.05303100;2023-03-14T03:31:38;94308.00;;;6.51;100.00
7824;BME280;3957;48.61947800;9.05303100;2023-03-14T03:32:38;94298.84;;;6.46;100.00
7824;BME280;3957;48.61947800;9.05303100;2023-03-14T03:33:39;94298.69;;;6.41;100.00
7824;BME280;3957;48.61947800;9.05303100;2023-03-14T03:34:40;94301.34;;;6.41;100.00
7824;BME280;3957;48.61947800;9.05303100;2023-03-14T03:35:49;94297.44;;;6.44;100.00
7824;BME280;3957;48.61947800;9.05303100;2023-03-14T03:36:56;94291.81;;;6.34;100.00
7824;BME280;3957;48.61947800;9.05303100;2023-03-14T03:37:56;94291.00;;;6.33;100.00
7824;BME280;3957;48.61947800;9.05303100;2023-03-14T03:38:57;94287.69;;;6.38;100.00
7824;BME280;3957;48.61947800;9.05303100;2023-03-14T03:39:59;94282.25;;;6.33;100.00
7824;BME280;3957;48.61947800;9.05303100;2023-03-14T03:41:09;94286.66;;;6.39;100.00
7824;BME280;3957;48.61947800;9.05303100;2023-03-14T03:42:09;94285.19;;;6.24;100.00
7824;BME280;3957;48.61947800;9.05303100;2023-03-14T03:43:10;94290.06;;;6.27;100.00
7824;BME280;3957;48.61947800;9.05303100;2023-03-14T03:44:13;94288.13;;;6.35;100.00
7824;BME280;3957;48.61947800;9.05303100;2023-03-14T03:45:14;94286.00;;;6.25;100.00
7824;BME280;3957;48.61947800;9.05303100;2023-03-14T03:46:23;94276.63;;;6.22;100.00
7824;BME280;3957;48.61947800;9.05303100;2023-03-14T03:47:25;94278.81;;;6.25;100.00
7824;BME280;3957;48.61947800;9.05303100;2023-03-14T03:48:25;94278.47;;;6.22;100.00
7824;BME280;3957;48.61947800;9.05303100;2023-03-14T03:49:31;94276.53;;;6.29;100.00
7824;BME280;3957;48.61947800;9.05303100;2023-03-14T03:50:32;94279.28;;;6.22;100.00
7824;BME280;3957;48.61947800;9.05303100;2023-03-14T03:51:32;94270.28;;;6.23;100.00
7824;BME280;3957;48.61947800;9.05303100;2023-03-14T03:52:32;94274.84;;;6.16;100.00
7824;BME280;3957;48.61947800;9.05303100;2023-03-14T03:53:33;94266.06;;;6.16;100.00
7824;BME280;3957;48.61947800;9.05303100;2023-03-14T03:54:35;94267.75;;;6.10;100.00
7824;BME280;3957;48.61947800;9.05303100;2023-03-14T03:55:35;94276.75;;;6.09;100.00
7824;BME280;3957;48.61947800;9.05303100;2023-03-14T03:56:35;94268.78;;;6.09;100.00
7824;BME280;3957;48.61947800;9.05303100;2023-03-14T03:57:36;94273.28;;;6.08;100.00
7824;BME280;3957;48.61947800;9.05303100;2023-03-14T03:58:36;94274.03;;;6.16;100.00
7824;BME280;3957;48.61947800;9.05303100;2023-03-14T03:59:38;94268.44;;;6.24;100.00
7824;BME280;3957;48.61947800;9.05303100;2023-03-14T04:00:41;94272.94;;;6.23;100.00
7824;BME280;3957;48.61947800;9.05303100;2023-03-14T04:01:41;94261.50;;;6.23;100.00
7824;BME280;3957;48.61947800;9.05303100;2023-03-14T04:02:42;94273.22;;;6.15;100.00
7824;BME280;3957;48.61947800;9.05303100;2023-03-14T04:03:45;94272.34;;;6.21;100.00
7824;BME280;3957;48.61947800;9.05303100;2023-03-14T04:04:45;94280.97;;;6.17;100.00
7824;BME280;3957;48.61947800;9.05303100;2023-03-14T04:05:46;94279.13;;;6.17;100.00
7824;BME280;3957;48.61947800;9.05303100;2023-03-14T04:06:47;94269.16;;;6.12;100.00
7824;BME280;3957;48.61947800;9.05303100;2023-03-14T04:07:47;94280.88;;;6.05;100.00
7824;BME280;3957;48.61947800;9.05303100;2023-03-14T04:08:53;94272.91;;;6.05;100.00
7824;BME280;3957;48.61947800;9.05303100;2023-03-14T04:10:12;94271.03;;;6.12;100.00
7824;BME280;3957;48.61947800;9.05303100;2023-03-14T04:11:16;94279.28;;;6.04;100.00
7824;BME280;3957;48.61947800;9.05303100;2023-03-14T04:12:42;94271.44;;;6.09;100.00
7824;BME280;3957;48.61947800;9.05303100;2023-03-14T04:13:51;94271.88;;;6.06;100.00
7824;BME280;3957;48.61947800;9.05303100;2023-03-14T04:14:51;94272.63;;;6.13;100.00
7824;BME280;3957;48.61947800;9.05303100;2023-03-14T04:15:56;94279.78;;;6.12;100.00
7824;BME280;3957;48.61947800;9.05303100;2023-03-14T04:16:59;94283.91;;;6.08;100.00
7824;BME280;3957;48.61947800;9.05303100;2023-03-14T04:17:59;94273.59;;;6.00;100.00
7824;BME280;3957;48.61947800;9.05303100;2023-03-14T04:19:03;94266.00;;;6.04;100.00
7824;BME280;3957;48.61947800;9.05303100;2023-03-14T04:20:05;94268.22;;;6.07;100.00
7824;BME280;3957;48.61947800;9.05303100;2023-03-14T04:21:10;94255.31;;;6.10;100.00
7824;BME280;3957;48.61947800;9.05303100;2023-03-14T04:22:20;94269.31;;;6.18;100.00
7824;BME280;3957;48.61947800;9.05303100;2023-03-14T04:23:24;94269.22;;;6.06;100.00
7824;BME280;3957;48.61947800;9.05303100;2023-03-14T04:24:24;94266.34;;;6.07;100.00
7824;BME280;3957;48.61947800;9.05303100;2023-03-14T04:25:25;94259.84;;;6.03;100.00
7824;BME280;3957;48.61947800;9.05303100;2023-03-14T04:26:29;94261.50;;;6.04;100.00
7824;BME280;3957;48.61947800;9.05303100;2023-03-14T04:27:30;94256.34;;;6.09;100.00
7824;BME280;3957;48.61947800;9.05303100;2023-03-14T04:28:30;94266.56;;;6.06;100.00
7824;BME280;3957;48.61947800;9.05303100;2023-03-14T04:29:31;94256.97;;;6.05;100.00
7824;BME280;3957;48.61947800;9.05303100;2023-03-14T04:30:32;94254.56;;;6.03;100.00
7824;BME280;3957;48.61947800;9.05303100;2023-03-14T04:31:36;94254.81;;;5.95;100.00
7824;BME280;3957;48.61947800;9.05303100;2023-03-14T04:32:39;94259.06;;;6.03;100.00
7824;BME280;3957;48.61947800;9.05303100;2023-03-14T04:33:39;94262.50;;;6.03;100.00
7824;BME280;3957;48.61947800;9.05303100;2023-03-14T04:34:40;94255.16;;;6.05;100.00
7824;BME280;3957;48.61947800;9.05303100;2023-03-14T04:35:41;94248.69;;;5.94;100.00
7824;BME280;3957;48.61947800;9.05303100;2023-03-14T04:36:45;94245.47;;;5.92;100.00
7824;BME280;3957;48.61947800;9.05303100;2023-03-14T04:37:52;94249.72;;;5.93;100.00
7824;BME280;3957;48.61947800;9.05303100;2023-03-14T04:38:54;94252.66;;;5.85;100.00
7824;BME280;3957;48.61947800;9.05303100;2023-03-14T04:39:55;94244.63;;;5.92;100.00
7824;BME280;3957;48.61947800;9.05303100;2023-03-14T04:41:01;94243.97;;;5.96;100.00
7824;BME280;3957;48.61947800;9.05303100;2023-03-14T04:42:05;94245.63;;;5.98;100.00
7824;BME280;3957;48.61947800;9.05303100;2023-03-14T04:43:07;94249.72;;;5.93;100.00
7824;BME280;3957;48.61947800;9.05303100;2023-03-14T04:44:08;94241.75;;;5.93;100.00
7824;BME280;3957;48.61947800;9.05303100;2023-03-14T04:45:09;94232.91;;;5.81;100.00
7824;BME280;3957;48.61947800;9.05303100;2023-03-14T04:46:11;94234.59;;;5.75;100.00
7824;BME280;3957;48.61947800;9.05303100;2023-03-14T04:47:12;94239.38;;;5.85;100.00
7824;BME280;3957;48.61947800;9.05303100;2023-03-14T04:48:14;94235.56;;;5.81;100.00
7824;BME280;3957;48.61947800;9.05303100;2023-03-14T04:49:15;94240.13;;;5.74;100.00
7824;BME280;3957;48.61947800;9.05303100;2023-03-14T04:50:15;94241.38;;;5.71;100.00
7824;BME280;3957;48.61947800;9.05303100;2023-03-14T04:51:16;94242.63;;;5.69;100.00
7824;BME280;3957;48.61947800;9.05303100;2023-03-14T04:52:16;94234.81;;;5.74;100.00
7824;BME280;3957;48.61947800;9.05303100;2023-03-14T04:53:17;94233.78;;;5.75;100.00
7824;BME280;3957;48.61947800;9.05303100;2023-03-14T04:54:19;94239.31;;;5.73;100.00
7824;BME280;3957;48.61947800;9.05303100;2023-03-14T04:55:23;94232.16;;;5.74;100.00
7824;BME280;3957;48.61947800;9.05303100;2023-03-14T04:56:24;94239.03;;;5.82;100.00
7824;BME280;3957;48.61947800;9.05303100;2023-03-14T04:57:24;94225.16;;;5.79;100.00
7824;BME280;3957;48.61947800;9.05303100;2023-03-14T04:58:25;94210.41;;;5.84;100.00
7824;BME280;3957;48.61947800;9.05303100;2023-03-14T04:59:27;94220.75;;;5.92;100.00
7824;BME280;3957;48.61947800;9.05303100;2023-03-14T05:00:31;94214.63;;;5.91;100.00
7824;BME280;3957;48.61947800;9.05303100;2023-03-14T05:01:31;94210.81;;;5.87;100.00
7824;BME280;3957;48.61947800;9.05303100;2023-03-14T05:02:55;94216.16;;;5.81;100.00
7824;BME280;3957;48.61947800;9.05303100;2023-03-14T05:03:55;94199.00;;;5.83;100.00
7824;BME280;3957;48.61947800;9.05303100;2023-03-14T05:05:19;94205.09;;;5.84;100.00
7824;BME280;3957;48.61947800;9.05303100;2023-03-14T05:06:34;94198.41;;;5.81;100.00
7824;BME280;3957;48.61947800;9.05303100;2023-03-14T05:07:40;94194.28;;;5.85;100.00
7824;BME280;3957;48.61947800;9.05303100;2023-03-14T05:08:55;94186.53;;;5.84;100.00